Time;durP1;ratioP1;P1;durP2;ratioP2;P2;SDS_P1;SDS_P2;PMS_P1;PMS_P2;Temp;Humidity;BMP_temperature;BMP_pressure;BME280_temperature;BME280_humidity;BME280_pressure;Samples;Min_cycle;Max_cycle;Signal;HPM_P1;HPM_P2
2021/12/01 00:02:12;;;;;;;4.80;4.37;;;3.60;28.80;;;;;;6255296;28;20787;-55
2021/12/01 00:05:15;;;;;;;6.73;4.70;;;3.70;28.20;;;;;;6258194;28;20786;-56
2021/12/01 00:08:18;;;;;;;4.10;3.90;;;3.60;27.60;;;;;;6258257;28;20238;-55
2021/12/01 00:11:21;;;;;;;4.60;4.30;;;3.50;27.90;;;;;;6256287;28;20710;-55
2021/12/01 00:14:26;;;;;;;4.90;4.10;;;3.40;27.00;;;;;;6258000;28;20237;-56
2021/12/01 00:17:29;;;;;;;6.10;4.97;;;3.80;25.70;;;;;;6260414;28;20375;-56
2021/12/01 00:20:33;;;;;;;4.40;4.00;;;3.70;25.80;;;;;;6256046;28;20308;-54
2021/12/01 00:23:36;;;;;;;5.23;4.00;;;3.80;26.80;;;;;;6255297;28;20238;-56
2021/12/01 00:26:39;;;;;;;5.00;4.43;;;3.70;26.20;;;;;;6262032;28;20283;-56
2021/12/01 00:29:44;;;;;;;6.87;4.20;;;3.70;26.10;;;;;;6253791;28;20241;-56
2021/12/01 00:32:47;;;;;;;5.27;4.47;;;3.70;26.90;;;;;;6259549;28;20575;-55
2021/12/01 00:35:52;;;;;;;6.43;4.57;;;3.60;26.70;;;;;;6259436;28;20248;-55
2021/12/01 00:38:55;;;;;;;5.43;4.87;;;3.40;26.90;;;;;;6256115;28;20237;-56
2021/12/01 00:42:00;;;;;;;6.97;4.37;;;3.50;27.20;;;;;;6259591;28;20254;-56
2021/12/01 00:45:08;;;;;;;9.03;5.40;;;3.80;27.20;;;;;;6258565;28;20623;-55
2021/12/01 00:48:10;;;;;;;4.77;4.47;;;3.50;26.60;;;;;;6254785;28;20233;-56
2021/12/01 00:51:15;;;;;;;5.87;4.67;;;3.50;27.20;;;;;;6259247;28;20234;-54
2021/12/01 00:54:18;;;;;;;8.40;4.63;;;3.60;27.90;;;;;;6252574;28;20385;-55
2021/12/01 00:57:21;;;;;;;7.30;4.27;;;3.70;28.30;;;;;;6250670;28;20238;-56
2021/12/01 01:00:29;;;;;;;6.97;4.57;;;3.70;28.50;;;;;;6252679;28;20380;-55
2021/12/01 01:03:32;;;;;;;4.80;4.40;;;3.40;28.50;;;;;;6249689;28;20245;-55
2021/12/01 01:06:37;;;;;;;8.30;4.90;;;3.80;29.60;;;;;;6255058;28;20238;-56
2021/12/01 01:09:43;;;;;;;6.60;5.17;;;3.80;29.30;;;;;;6254324;28;20282;-56
2021/12/01 01:16:26;;;;;;;6.00;4.63;;;3.80;31.20;;;;;;6258163;28;20291;-56
2021/12/01 01:19:29;;;;;;;11.63;5.07;;;3.60;31.70;;;;;;6253575;28;20361;-56
2021/12/01 01:22:32;;;;;;;9.30;4.90;;;3.60;31.60;;;;;;6258527;28;20504;-55
2021/12/01 01:25:35;;;;;;;8.87;4.50;;;3.50;31.20;;;;;;6251024;28;20288;-55
2021/12/01 01:28:40;;;;;;;6.67;5.17;;;3.90;32.10;;;;;;6258522;28;20399;-54
2021/12/01 01:31:44;;;;;;;7.17;4.50;;;3.80;32.90;;;;;;6255198;28;20245;-56
2021/12/01 01:34:47;;;;;;;9.33;5.23;;;3.90;32.70;;;;;;6258149;28;20488;-55
2021/12/01 01:37:50;;;;;;;13.53;5.13;;;3.90;34.30;;;;;;6257663;28;20319;-56
2021/12/01 01:40:53;;;;;;;14.47;5.33;;;3.90;34.70;;;;;;6258877;28;20311;-56
2021/12/01 01:43:56;;;;;;;5.70;4.50;;;3.70;36.20;;;;;;6254896;28;20302;-54
2021/12/01 01:47:01;;;;;;;8.80;6.07;;;3.80;36.50;;;;;;6259467;28;20244;-55
2021/12/01 01:50:21;;;;;;;10.83;5.10;;;3.70;36.40;;;;;;6255043;28;20704;-54
2021/12/01 01:53:26;;;;;;;8.10;4.93;;;3.70;36.70;;;;;;6257322;28;20244;-54
2021/12/01 01:56:31;;;;;;;9.73;5.53;;;3.50;37.00;;;;;;6257455;28;20238;-54
2021/12/01 01:59:34;;;;;;;8.97;5.43;;;3.60;38.40;;;;;;6247471;28;20235;-56
2021/12/01 02:02:39;;;;;;;14.70;5.80;;;3.70;39.90;;;;;;6258789;28;20295;-54
2021/12/01 02:05:42;;;;;;;8.57;5.93;;;3.50;41.40;;;;;;6257205;28;20233;-56
2021/12/01 02:08:45;;;;;;;8.67;5.70;;;3.60;42.20;;;;;;6260018;28;20372;-55
2021/12/01 02:11:53;;;;;;;8.63;5.73;;;3.60;43.10;;;;;;6251135;28;20274;-55
2021/12/01 02:14:57;;;;;;;9.53;4.90;;;3.60;42.30;;;;;;6261315;28;20291;-54
2021/12/01 02:18:01;;;;;;;10.83;6.27;;;3.50;42.80;;;;;;6262316;28;20265;-56
2021/12/01 02:21:11;;;;;;;7.17;5.00;;;3.80;42.20;;;;;;6258383;28;20234;-56
2021/12/01 02:24:15;;;;;;;11.43;5.20;;;3.40;41.80;;;;;;6254213;28;20700;-56
2021/12/01 02:27:18;;;;;;;14.07;5.93;;;3.80;42.20;;;;;;6263050;28;20351;-55
2021/12/01 02:30:23;;;;;;;7.13;5.67;;;3.70;42.10;;;;;;6262687;28;20379;-54
2021/12/01 02:33:26;;;;;;;10.50;5.20;;;3.50;42.20;;;;;;6259248;28;20240;-56
2021/12/01 02:36:30;;;;;;;11.80;5.60;;;3.60;42.50;;;;;;6261992;28;20704;-54
2021/12/01 02:39:35;;;;;;;13.53;5.60;;;3.60;43.80;;;;;;6260869;28;20261;-55
2021/12/01 02:42:38;;;;;;;11.30;4.97;;;3.50;45.10;;;;;;6254108;28;20314;-55
2021/12/01 02:45:42;;;;;;;10.63;5.73;;;3.50;45.90;;;;;;6262261;28;20241;-54
2021/12/01 02:48:46;;;;;;;15.37;6.00;;;3.50;46.80;;;;;;6258220;28;20237;-54
2021/12/01 02:51:53;;;;;;;9.50;5.37;;;3.80;46.20;;;;;;6262949;28;20806;-56
2021/12/01 02:54:57;;;;;;;9.20;5.10;;;3.60;45.70;;;;;;6259676;28;20708;-55
2021/12/01 02:58:01;;;;;;;9.27;4.87;;;3.40;45.40;;;;;;6259245;28;20610;-55
2021/12/01 03:01:07;;;;;;;9.13;5.70;;;3.50;45.20;;;;;;6261514;28;20659;-54
2021/12/01 03:04:11;;;;;;;14.47;5.83;;;3.50;45.40;;;;;;6260791;28;20282;-55
2021/12/01 03:07:16;;;;;;;11.53;5.40;;;3.90;46.90;;;;;;6254100;28;20822;-54
2021/12/01 03:10:19;;;;;;;11.77;5.90;;;3.70;47.10;;;;;;6261119;28;21380;-55
2021/12/01 03:13:23;;;;;;;10.03;5.20;;;3.40;47.20;;;;;;6261221;28;20321;-54
2021/12/01 03:16:27;;;;;;;18.43;6.67;;;3.80;47.50;;;;;;6255402;28;20283;-56
2021/12/01 03:19:30;;;;;;;8.00;5.30;;;3.60;47.70;;;;;;6260253;28;20234;-55
2021/12/01 03:22:34;;;;;;;11.00;4.87;;;3.90;47.70;;;;;;6259395;28;20320;-56
2021/12/01 03:25:37;;;;;;;11.50;5.30;;;3.70;48.10;;;;;;6257115;28;20313;-56
2021/12/01 03:28:41;;;;;;;7.50;5.17;;;3.90;48.40;;;;;;6261086;28;20276;-54
2021/12/01 03:31:44;;;;;;;13.80;5.67;;;3.80;48.30;;;;;;6250425;28;20242;-53
2021/12/01 03:34:47;;;;;;;13.13;5.90;;;3.90;48.50;;;;;;6260284;28;20328;-56
2021/12/01 03:37:52;;;;;;;19.97;6.33;;;3.80;48.50;;;;;;6261192;28;20253;-55
2021/12/01 03:40:56;;;;;;;14.77;5.87;;;3.90;49.10;;;;;;6256681;28;20362;-56
2021/12/01 03:43:59;;;;;;;19.03;7.13;;;3.90;49.30;;;;;;6261371;28;20379;-55
2021/12/01 03:47:02;;;;;;;9.33;5.40;;;3.80;49.50;;;;;;6261800;28;20260;-57
2021/12/01 03:50:06;;;;;;;10.07;5.33;;;3.60;50.00;;;;;;6260697;28;20445;-56
2021/12/01 03:53:11;;;;;;;17.73;5.70;;;3.90;50.50;;;;;;6246055;28;20326;-56
2021/12/01 03:56:16;;;;;;;18.90;6.10;;;3.70;50.10;;;;;;6257359;28;20528;-56
2021/12/01 03:59:19;;;;;;;8.97;5.27;;;3.80;50.80;;;;;;6260153;28;20257;-54
2021/12/01 04:02:22;;;;;;;15.40;6.73;;;3.90;51.00;;;;;;6259642;28;20253;-56
2021/12/01 04:05:25;;;;;;;11.07;6.07;;;3.60;51.30;;;;;;6250629;28;20230;-55
2021/12/01 04:08:29;;;;;;;13.53;5.80;;;3.80;51.80;;;;;;6256382;28;20327;-55
2021/12/01 04:11:33;;;;;;;9.13;5.60;;;4.00;51.70;;;;;;6260376;28;20856;-54
2021/12/01 04:14:36;;;;;;;13.90;5.20;;;4.00;52.00;;;;;;6258615;28;20320;-54
2021/12/01 04:17:40;;;;;;;15.00;5.50;;;3.90;50.90;;;;;;6256164;28;20257;-56
2021/12/01 04:20:43;;;;;;;13.80;5.87;;;4.00;51.10;;;;;;6259560;28;20265;-54
2021/12/01 04:23:48;;;;;;;12.73;5.60;;;3.70;53.00;;;;;;6256827;28;20311;-55
2021/12/01 04:26:51;;;;;;;13.83;6.00;;;3.90;53.20;;;;;;6250002;28;20320;-56
2021/12/01 04:29:55;;;;;;;8.63;5.30;;;3.90;52.20;;;;;;6246580;28;20256;-54
2021/12/01 04:32:58;;;;;;;14.93;5.50;;;3.80;52.20;;;;;;6243787;28;20238;-56
2021/12/01 04:36:01;;;;;;;11.40;5.60;;;3.90;51.50;;;;;;6264147;28;20857;-54
2021/12/01 04:39:08;;;;;;;12.57;5.77;;;3.80;52.70;;;;;;6259521;28;20741;-56
2021/12/01 04:42:13;;;;;;;13.27;6.77;;;4.20;52.30;;;;;;6255240;28;20315;-57
2021/12/01 04:45:18;;;;;;;11.87;6.03;;;4.00;53.40;;;;;;6268518;28;20360;-56
2021/12/01 04:48:21;;;;;;;14.17;5.60;;;4.20;55.00;;;;;;6255725;28;20684;-56
2021/12/01 04:51:24;;;;;;;12.27;6.23;;;4.20;54.70;;;;;;6250506;28;20239;-54
2021/12/01 04:54:29;;;;;;;14.20;6.50;;;4.10;55.80;;;;;;6262579;28;20234;-55
2021/12/01 04:57:32;;;;;;;12.13;6.00;;;4.10;56.10;;;;;;6258809;28;20234;-55
2021/12/01 05:00:37;;;;;;;14.07;5.43;;;4.00;56.70;;;;;;6254535;28;20288;-54
2021/12/01 05:03:40;;;;;;;14.53;6.27;;;4.10;57.00;;;;;;6244205;28;20234;-56
2021/12/01 05:06:43;;;;;;;14.03;6.70;;;4.10;56.90;;;;;;6252527;28;20235;-56
2021/12/01 05:09:47;;;;;;;14.47;5.57;;;4.20;57.50;;;;;;6264357;28;20234;-55
2021/12/01 05:12:51;;;;;;;7.77;5.50;;;4.20;57.60;;;;;;6255589;28;20816;-56
2021/12/01 05:15:54;;;;;;;6.63;5.43;;;4.10;57.80;;;;;;6267806;28;21554;-56
2021/12/01 05:18:57;;;;;;;9.67;5.77;;;4.20;57.70;;;;;;6260426;28;20723;-55
2021/12/01 05:22:00;;;;;;;12.50;6.03;;;4.30;58.00;;;;;;6257433;28;20478;-56
2021/12/01 05:25:06;;;;;;;14.93;6.30;;;3.80;57.40;;;;;;6256091;28;20312;-56
2021/12/01 05:28:09;;;;;;;15.27;6.47;;;4.10;58.90;;;;;;6264877;28;20981;-55
2021/12/01 05:31:13;;;;;;;11.30;6.17;;;4.10;58.60;;;;;;6260108;28;20384;-54
2021/12/01 05:34:16;;;;;;;12.43;6.73;;;3.90;58.50;;;;;;6257448;28;20253;-55
2021/12/01 05:37:19;;;;;;;7.27;5.83;;;3.90;58.70;;;;;;6255409;28;20329;-55
2021/12/01 05:40:24;;;;;;;10.40;5.43;;;4.20;59.00;;;;;;6262291;28;20317;-56
2021/12/01 05:43:27;;;;;;;11.23;5.80;;;4.20;59.00;;;;;;6262892;28;20359;-56
2021/12/01 05:46:30;;;;;;;12.27;5.37;;;4.30;59.10;;;;;;6260742;28;20335;-55
2021/12/01 05:49:33;;;;;;;10.00;5.20;;;4.30;58.80;;;;;;6268608;28;20241;-56
2021/12/01 05:52:37;;;;;;;13.20;6.03;;;4.10;59.10;;;;;;6260063;28;20240;-55
2021/12/01 05:55:41;;;;;;;9.70;6.00;;;4.50;59.20;;;;;;6258053;28;20349;-55
2021/12/01 05:58:44;;;;;;;11.93;5.40;;;4.40;59.50;;;;;;6262000;28;20283;-55
2021/12/01 06:01:47;;;;;;;9.10;5.63;;;4.00;59.40;;;;;;6263822;28;20222;-54
2021/12/01 06:04:50;;;;;;;11.80;5.53;;;4.30;60.10;;;;;;6257065;28;20877;-56
2021/12/01 06:07:53;;;;;;;11.67;6.63;;;4.20;60.20;;;;;;6265633;28;20242;-55
2021/12/01 06:10:58;;;;;;;9.90;6.27;;;4.20;60.30;;;;;;6265887;28;20315;-55
2021/12/01 06:14:01;;;;;;;14.47;6.23;;;4.20;60.40;;;;;;6262375;28;20324;-56
2021/12/01 06:17:04;;;;;;;13.57;7.70;;;4.30;60.30;;;;;;6270023;28;20645;-57
2021/12/01 06:20:10;;;;;;;17.03;6.97;;;4.10;60.40;;;;;;6263403;28;20268;-55
2021/12/01 06:23:13;;;;;;;20.30;7.37;;;4.30;60.80;;;;;;6262640;28;20233;-54
2021/12/01 06:26:18;;;;;;;14.30;8.03;;;4.30;61.20;;;;;;6258677;28;20652;-55
2021/12/01 06:29:22;;;;;;;11.60;7.53;;;4.30;61.30;;;;;;6261772;28;20719;-55
2021/12/01 06:32:25;;;;;;;20.57;8.43;;;4.10;60.80;;;;;;6261036;28;20599;-56
2021/12/01 06:35:28;;;;;;;10.60;8.00;;;4.30;61.00;;;;;;6261463;28;20230;-56
2021/12/01 06:38:32;;;;;;;18.80;8.43;;;4.20;60.80;;;;;;6261867;28;20734;-55
2021/12/01 06:41:37;;;;;;;10.97;8.00;;;4.20;61.10;;;;;;6256194;28;20230;-55
2021/12/01 06:44:40;;;;;;;14.13;7.97;;;4.60;61.30;;;;;;6260722;28;20800;-56
2021/12/01 06:47:44;;;;;;;13.50;8.00;;;4.50;61.70;;;;;;6262158;28;20443;-56
2021/12/01 06:50:47;;;;;;;14.73;7.33;;;4.50;61.40;;;;;;6263141;28;20256;-55
2021/12/01 06:53:51;;;;;;;11.70;8.43;;;4.40;61.50;;;;;;6260889;28;20337;-55
2021/12/01 06:56:55;;;;;;;11.17;7.13;;;4.70;61.60;;;;;;6261825;28;20969;-55
2021/12/01 06:59:58;;;;;;;8.43;7.73;;;4.70;61.60;;;;;;6255775;28;20276;-55
2021/12/01 07:03:01;;;;;;;8.40;7.57;;;4.50;61.70;;;;;;6260995;28;20693;-56
2021/12/01 07:06:05;;;;;;;8.93;7.83;;;4.50;61.30;;;;;;6264105;28;20260;-56
2021/12/01 07:09:10;;;;;;;11.63;7.30;;;4.60;61.40;;;;;;6260835;28;20279;-54
2021/12/01 07:12:15;;;;;;;9.43;8.40;;;4.60;61.50;;;;;;6259960;28;20271;-56
2021/12/01 07:15:30;;;;;;;9.50;8.33;;;4.40;61.20;;;;;;6260608;28;20831;-55
2021/12/01 07:18:33;;;;;;;9.83;8.87;;;4.90;61.80;;;;;;6250310;28;20714;-54
2021/12/01 07:21:36;;;;;;;8.70;7.83;;;4.80;61.60;;;;;;6255244;28;20324;-56
2021/12/01 07:24:39;;;;;;;9.10;8.30;;;4.70;61.80;;;;;;6258779;28;20298;-54
2021/12/01 07:27:49;;;;;;;8.63;7.83;;;5.00;62.10;;;;;;6259561;28;20590;-60
2021/12/01 07:30:52;;;;;;;9.37;8.47;;;4.90;61.80;;;;;;6258613;28;20288;-56
2021/12/01 07:33:56;;;;;;;9.30;8.50;;;4.80;61.80;;;;;;6257985;28;20241;-53
2021/12/01 07:36:59;;;;;;;9.40;8.60;;;5.00;61.80;;;;;;6257709;28;20327;-54
2021/12/01 07:40:02;;;;;;;9.57;8.83;;;4.90;62.00;;;;;;6260151;28;20253;-55
2021/12/01 07:43:06;;;;;;;9.90;9.10;;;5.00;62.00;;;;;;6264474;28;20371;-54
2021/12/01 07:46:09;;;;;;;12.70;10.00;;;4.90;61.80;;;;;;6266186;28;20708;-54
2021/12/01 07:49:12;;;;;;;12.77;9.97;;;4.90;61.70;;;;;;6267670;28;20233;-55
2021/12/01 07:52:15;;;;;;;11.03;9.57;;;5.10;61.70;;;;;;6262519;28;20342;-55
2021/12/01 07:55:19;;;;;;;14.03;10.50;;;5.20;61.70;;;;;;6269336;28;20264;-55
2021/12/01 07:58:23;;;;;;;13.07;10.57;;;5.30;61.60;;;;;;6266950;28;20233;-56
2021/12/01 08:01:27;;;;;;;12.97;10.90;;;5.40;61.90;;;;;;6267136;28;20311;-55
2021/12/01 08:04:32;;;;;;;11.83;10.77;;;5.70;62.10;;;;;;6264961;28;20249;-55
2021/12/01 08:07:36;;;;;;;12.60;11.30;;;5.40;61.50;;;;;;6261963;28;20354;-56
2021/12/01 08:10:40;;;;;;;11.50;10.40;;;5.50;62.00;;;;;;6264938;28;20321;-55
2021/12/01 08:13:44;;;;;;;12.10;11.13;;;5.50;61.60;;;;;;6258774;28;20356;-55
2021/12/01 08:16:51;;;;;;;11.50;10.57;;;5.70;61.90;;;;;;6268925;28;20238;-56
2021/12/01 08:19:57;;;;;;;11.47;10.57;;;5.80;62.10;;;;;;6255054;28;20325;-54
2021/12/01 08:23:00;;;;;;;13.07;11.87;;;5.90;62.30;;;;;;6260138;28;20234;-55
2021/12/01 08:26:03;;;;;;;11.17;10.20;;;5.90;62.70;;;;;;6262794;28;20241;-56
2021/12/01 08:29:09;;;;;;;11.00;10.20;;;6.10;63.20;;;;;;6259699;28;20696;-55
2021/12/01 08:32:12;;;;;;;9.77;9.17;;;6.10;63.20;;;;;;6264917;28;20305;-55
2021/12/01 08:35:16;;;;;;;10.20;9.50;;;6.20;63.50;;;;;;6261299;28;20234;-56
2021/12/01 08:38:19;;;;;;;9.90;9.10;;;6.20;63.60;;;;;;6264835;28;20338;-53
2021/12/01 08:41:22;;;;;;;10.53;9.73;;;6.40;63.90;;;;;;6264930;28;20744;-56
2021/12/01 08:44:27;;;;;;;9.87;9.20;;;6.30;63.80;;;;;;6257881;28;21252;-57
2021/12/01 08:47:31;;;;;;;9.00;8.50;;;6.40;63.90;;;;;;6258527;28;20474;-54
2021/12/01 08:50:35;;;;;;;9.67;8.97;;;6.50;63.70;;;;;;6259662;28;20609;-55
2021/12/01 08:53:41;;;;;;;8.80;8.30;;;6.50;63.70;;;;;;6262508;28;20670;-55
2021/12/01 08:56:44;;;;;;;8.37;7.87;;;6.60;63.40;;;;;;6266079;28;21023;-56
2021/12/01 08:59:50;;;;;;;8.10;7.60;;;6.50;62.30;;;;;;6257888;28;20233;-55
2021/12/01 09:02:53;;;;;;;8.13;7.73;;;6.70;62.30;;;;;;6257792;28;20261;-54
2021/12/01 09:05:56;;;;;;;7.90;7.50;;;6.70;61.90;;;;;;6255774;28;20575;-55
2021/12/01 09:08:59;;;;;;;7.00;6.70;;;6.70;62.10;;;;;;6257711;28;20611;-56
2021/12/01 09:12:02;;;;;;;8.13;7.63;;;6.60;61.90;;;;;;6262478;28;20247;-55
2021/12/01 09:15:09;;;;;;;7.33;7.03;;;6.70;61.50;;;;;;6262150;28;20826;-56
2021/12/01 09:18:12;;;;;;;6.97;6.67;;;6.70;61.80;;;;;;6261744;28;20284;-55
2021/12/01 09:21:15;;;;;;;6.63;6.43;;;6.80;61.90;;;;;;6263910;28;20234;-55
2021/12/01 09:24:20;;;;;;;6.23;5.90;;;6.80;61.50;;;;;;6251978;28;20597;-56
2021/12/01 09:27:23;;;;;;;6.00;5.80;;;6.80;60.80;;;;;;6265399;28;20249;-53
2021/12/01 09:30:28;;;;;;;6.10;5.83;;;6.80;60.50;;;;;;6256939;28;20238;-55
2021/12/01 09:33:32;;;;;;;5.27;5.17;;;6.80;60.00;;;;;;6266998;28;20767;-55
2021/12/01 09:36:35;;;;;;;5.27;5.07;;;6.80;60.80;;;;;;6259027;28;20758;-55
2021/12/01 09:39:38;;;;;;;5.30;4.80;;;6.90;60.10;;;;;;6269469;28;20693;-58
2021/12/01 09:42:46;;;;;;;5.53;5.20;;;7.00;60.10;;;;;;6271406;28;20334;-56
2021/12/01 09:45:51;;;;;;;5.67;5.40;;;6.90;59.80;;;;;;6264358;28;20241;-56
2021/12/01 09:48:54;;;;;;;5.23;4.93;;;6.90;60.10;;;;;;6262804;28;20579;-54
2021/12/01 09:51:57;;;;;;;5.13;5.00;;;7.00;59.50;;;;;;6266613;28;20279;-56
2021/12/01 09:55:00;;;;;;;5.23;5.10;;;7.00;57.80;;;;;;6261839;28;20283;-56
2021/12/01 09:58:05;;;;;;;5.30;5.07;;;7.00;58.10;;;;;;6265930;28;20441;-56
2021/12/01 10:01:13;;;;;;;4.83;4.63;;;7.00;58.30;;;;;;6263045;28;20546;-56
2021/12/01 10:04:16;;;;;;;4.60;4.50;;;7.00;56.60;;;;;;6266235;28;20226;-56
2021/12/01 10:07:21;;;;;;;4.60;4.40;;;7.10;56.20;;;;;;6263045;28;20352;-54
2021/12/01 10:10:25;;;;;;;4.37;4.27;;;7.00;56.40;;;;;;6262680;28;20292;-55
2021/12/01 10:13:30;;;;;;;4.57;4.47;;;7.10;55.80;;;;;;6262507;28;20560;-57
2021/12/01 10:16:36;;;;;;;4.80;4.70;;;7.20;54.80;;;;;;6255944;28;20260;-56
2021/12/01 10:19:39;;;;;;;4.57;4.47;;;7.20;53.60;;;;;;6261552;28;20233;-55
2021/12/01 10:23:08;;;;;;;5.07;4.77;;;7.20;53.90;;;;;;6259180;28;20883;-57
2021/12/01 10:26:17;;;;;;;4.73;4.63;;;7.20;54.70;;;;;;6257898;28;20234;-56
2021/12/01 10:29:23;;;;;;;5.20;4.90;;;7.40;56.00;;;;;;6268625;28;20240;-56
2021/12/01 10:32:27;;;;;;;6.23;5.70;;;7.10;55.90;;;;;;6260705;28;20275;-55
2021/12/01 10:35:34;;;;;;;5.93;5.67;;;7.10;57.00;;;;;;6266754;28;20233;-56
2021/12/01 10:38:39;;;;;;;5.80;5.60;;;7.10;57.20;;;;;;6261960;28;20548;-57
2021/12/01 10:41:43;;;;;;;7.23;6.50;;;7.20;57.60;;;;;;6248412;28;20373;-55
2021/12/01 10:44:58;;;;;;;6.00;5.70;;;7.10;57.10;;;;;;6253045;28;20765;-55
2021/12/01 10:48:04;;;;;;;6.33;5.93;;;7.20;58.00;;;;;;6258120;28;20261;-56
2021/12/01 10:51:12;;;;;;;6.07;5.77;;;7.10;57.90;;;;;;6258881;28;20230;-56
2021/12/01 10:54:17;;;;;;;5.80;5.50;;;7.30;57.20;;;;;;6259749;28;20272;-57
2021/12/01 10:57:22;;;;;;;6.40;5.83;;;7.10;56.40;;;;;;6261629;28;20234;-55
2021/12/01 11:00:28;;;;;;;5.57;5.37;;;7.00;57.00;;;;;;6266777;28;20265;-55
2021/12/01 11:03:35;;;;;;;5.90;5.70;;;7.10;56.80;;;;;;6260801;28;20302;-57
2021/12/01 11:06:43;;;;;;;6.27;5.87;;;7.20;56.60;;;;;;6262174;28;20234;-58
2021/12/01 11:09:46;;;;;;;5.90;5.70;;;7.10;58.40;;;;;;6261529;28;20316;-56
2021/12/01 11:12:57;;;;;;;6.20;5.90;;;7.00;58.90;;;;;;6263159;28;20267;-55
2021/12/01 11:16:02;;;;;;;5.50;5.30;;;7.00;59.20;;;;;;6261930;28;20242;-55
2021/12/01 11:19:34;;;;;;;5.57;5.37;;;7.00;59.50;;;;;;6261786;28;20238;-56
2021/12/01 11:22:38;;;;;;;5.40;5.20;;;7.00;59.30;;;;;;6261344;28;20248;-55
2021/12/01 11:25:41;;;;;;;5.93;5.53;;;7.00;59.50;;;;;;6262908;28;20268;-56
2021/12/01 11:28:46;;;;;;;5.33;5.13;;;7.00;58.80;;;;;;6261076;28;20246;-59
2021/12/01 11:31:49;;;;;;;6.27;5.80;;;7.00;57.70;;;;;;6260582;28;20661;-55
2021/12/01 11:34:53;;;;;;;6.33;6.07;;;7.00;57.90;;;;;;6254634;28;20248;-55
2021/12/01 11:37:57;;;;;;;5.73;5.53;;;7.00;58.20;;;;;;6261119;28;20233;-56
2021/12/01 11:41:01;;;;;;;5.33;5.23;;;7.10;56.90;;;;;;6264203;28;20230;-62
2021/12/01 11:44:05;;;;;;;5.57;5.23;;;7.10;54.90;;;;;;6262944;28;20716;-55
2021/12/01 11:47:08;;;;;;;5.70;5.50;;;7.10;54.50;;;;;;6263701;28;20270;-55
2021/12/01 11:50:16;;;;;;;6.13;5.67;;;7.10;55.80;;;;;;6264443;28;20226;-55
2021/12/01 11:53:22;;;;;;;6.13;5.83;;;7.00;55.80;;;;;;6264271;28;20242;-55
2021/12/01 11:56:29;;;;;;;5.47;5.27;;;7.00;55.70;;;;;;6259478;28;20799;-56
2021/12/01 11:59:32;;;;;;;5.47;5.37;;;7.00;56.30;;;;;;6263412;28;20320;-56
2021/12/01 12:02:36;;;;;;;5.23;5.03;;;7.00;56.50;;;;;;6265085;28;20230;-55
2021/12/01 12:05:42;;;;;;;4.83;4.63;;;7.10;56.10;;;;;;6259302;28;20249;-56
2021/12/01 12:08:59;;;;;;;5.30;5.00;;;7.10;55.50;;;;;;6260946;28;20233;-56
2021/12/01 12:12:20;;;;;;;5.43;5.30;;;7.10;53.90;;;;;;6254799;28;20288;-56
2021/12/01 12:15:47;;;;;;;5.33;4.93;;;7.10;54.30;;;;;;6260907;28;20237;-54
2021/12/01 12:18:52;;;;;;;4.47;4.27;;;7.00;51.90;;;;;;6256564;28;20237;-54
2021/12/01 12:22:01;;;;;;;5.03;4.83;;;7.20;51.80;;;;;;6263771;28;20323;-56
2021/12/01 12:25:08;;;;;;;5.30;5.10;;;7.20;51.30;;;;;;6262535;28;20328;-55
2021/12/01 12:28:26;;;;;;;4.87;4.70;;;7.20;51.30;;;;;;6255992;28;20226;-57
2021/12/01 12:31:31;;;;;;;5.17;4.97;;;7.30;49.20;;;;;;6252629;28;20353;-53
2021/12/01 12:34:49;;;;;;;4.90;4.80;;;7.30;49.20;;;;;;6265469;28;20238;-56
2021/12/01 12:38:07;;;;;;;5.33;4.87;;;7.30;49.40;;;;;;6257755;28;20246;-57
2021/12/01 12:41:13;;;;;;;4.57;4.37;;;7.30;49.60;;;;;;6254648;28;20376;-55
2021/12/01 12:44:30;;;;;;;4.93;4.73;;;7.30;49.50;;;;;;6256222;28;20726;-56
2021/12/01 12:47:52;;;;;;;4.53;4.43;;;7.30;48.90;;;;;;6262059;28;20276;-56
2021/12/01 12:51:10;;;;;;;4.53;4.33;;;7.40;46.50;;;;;;6264394;28;20245;-55
2021/12/01 12:54:17;;;;;;;4.23;4.03;;;7.60;44.70;;;;;;6260535;28;20317;-56
2021/12/01 12:57:21;;;;;;;5.50;5.00;;;7.60;45.00;;;;;;6258266;28;20241;-55
2021/12/01 13:00:32;;;;;;;5.67;5.30;;;7.60;42.30;;;;;;6252397;28;20737;-55
2021/12/01 13:03:36;;;;;;;4.93;4.63;;;7.60;43.60;;;;;;6250393;28;20241;-56
2021/12/01 13:06:39;;;;;;;4.57;4.47;;;7.60;42.30;;;;;;6264230;28;20234;-55
2021/12/01 13:10:02;;;;;;;4.57;4.27;;;7.70;43.10;;;;;;6258633;28;20233;-56
2021/12/01 13:13:07;;;;;;;4.67;4.37;;;7.70;43.30;;;;;;6255406;28;20344;-55
2021/12/01 13:16:15;;;;;;;4.77;4.50;;;7.70;42.90;;;;;;6259086;28;20234;-56
2021/12/01 13:19:21;;;;;;;4.70;4.60;;;7.70;41.90;;;;;;6257480;28;20383;-56
2021/12/01 13:22:29;;;;;;;4.53;4.30;;;7.60;42.60;;;;;;6260151;28;20477;-55
2021/12/01 13:25:54;;;;;;;4.67;4.37;;;7.60;42.90;;;;;;6251128;28;20238;-56
2021/12/01 13:29:01;;;;;;;4.40;4.20;;;7.60;42.30;;;;;;6258064;28;20317;-55
2021/12/01 13:32:05;;;;;;;4.40;4.30;;;7.70;42.50;;;;;;6258799;28;20530;-56
2021/12/01 13:35:08;;;;;;;4.10;4.00;;;7.70;41.60;;;;;;6259547;28;20241;-56
2021/12/01 13:38:11;;;;;;;4.40;4.20;;;7.80;40.60;;;;;;6264434;28;20729;-56
2021/12/01 13:41:18;;;;;;;4.60;4.20;;;7.80;37.70;;;;;;6264919;28;20229;-56
2021/12/01 13:44:24;;;;;;;4.40;4.20;;;7.80;38.80;;;;;;6264076;28;20972;-55
2021/12/01 13:47:30;;;;;;;4.00;3.90;;;7.80;39.30;;;;;;6267811;28;20268;-56
2021/12/01 13:50:33;;;;;;;4.00;3.90;;;7.80;37.70;;;;;;6263412;28;20238;-56
2021/12/01 13:53:36;;;;;;;4.50;4.30;;;7.80;37.70;;;;;;6264791;28;20270;-56
2021/12/01 13:56:41;;;;;;;4.60;4.40;;;7.80;38.40;;;;;;6263235;28;20751;-57
2021/12/01 13:59:47;;;;;;;3.60;3.60;;;7.80;39.00;;;;;;6252840;28;20365;-56
2021/12/01 14:02:52;;;;;;;3.40;3.30;;;7.90;38.00;;;;;;6264653;28;20320;-56
2021/12/01 14:05:56;;;;;;;3.60;3.50;;;7.80;38.90;;;;;;6272314;28;20241;-55
2021/12/01 14:09:28;;;;;;;4.23;4.13;;;7.90;36.80;;;;;;6264903;28;20737;-55
2021/12/01 14:12:37;;;;;;;3.47;3.37;;;7.90;36.30;;;;;;6273780;28;20583;-55
2021/12/01 14:15:43;;;;;;;3.97;3.87;;;7.90;37.50;;;;;;6247507;28;20234;-56
2021/12/01 14:18:46;;;;;;;3.60;3.50;;;7.90;37.10;;;;;;6271482;28;20604;-56
2021/12/01 14:21:50;;;;;;;3.93;3.83;;;7.90;35.60;;;;;;6268264;28;20242;-57
2021/12/01 14:24:54;;;;;;;3.80;3.70;;;8.00;35.90;;;;;;6263000;28;20392;-57
2021/12/01 14:28:07;;;;;;;3.90;3.80;;;8.00;34.80;;;;;;6263507;28;20237;-57
2021/12/01 14:31:10;;;;;;;3.90;3.70;;;8.00;35.50;;;;;;6253246;28;20230;-56
2021/12/01 14:34:16;;;;;;;4.00;3.90;;;8.00;34.90;;;;;;6261857;28;20238;-56
2021/12/01 14:37:20;;;;;;;3.30;3.30;;;8.10;33.90;;;;;;6262094;28;20847;-56
2021/12/01 14:40:23;;;;;;;3.40;3.30;;;8.10;34.20;;;;;;6259643;28;20257;-55
2021/12/01 14:43:28;;;;;;;3.93;3.70;;;8.10;35.60;;;;;;6263384;28;20318;-56
2021/12/01 14:46:33;;;;;;;5.80;3.73;;;8.10;33.30;;;;;;6268103;28;20242;-55
2021/12/01 14:49:41;;;;;;;3.40;3.30;;;8.10;34.30;;;;;;6258220;28;20234;-55
2021/12/01 14:52:44;;;;;;;3.13;3.03;;;8.20;34.80;;;;;;6272816;28;20840;-56
2021/12/01 14:55:48;;;;;;;3.13;3.10;;;8.20;34.50;;;;;;6267697;28;20888;-57
2021/12/01 14:58:52;;;;;;;3.60;3.40;;;8.10;34.70;;;;;;6262386;28;20299;-56
2021/12/01 15:02:14;;;;;;;3.50;3.40;;;8.20;33.60;;;;;;6268908;28;20906;-56
2021/12/01 15:05:18;;;;;;;3.50;3.40;;;8.20;33.30;;;;;;6262374;28;20230;-56
2021/12/01 15:08:29;;;;;;;3.40;3.40;;;8.20;33.20;;;;;;6270368;28;20263;-56
2021/12/01 15:11:41;;;;;;;3.40;3.40;;;8.20;33.30;;;;;;6265307;28;20276;-56
2021/12/01 15:14:45;;;;;;;3.43;3.40;;;8.20;34.20;;;;;;6261728;28;20264;-56
2021/12/01 15:17:55;;;;;;;3.57;3.30;;;8.20;33.80;;;;;;6267024;28;20317;-58
2021/12/01 15:21:02;;;;;;;3.80;3.70;;;8.20;34.20;;;;;;6268649;28;20230;-56
2021/12/01 15:24:06;;;;;;;4.00;3.90;;;8.20;35.00;;;;;;6262233;28;20238;-55
2021/12/01 15:27:09;;;;;;;3.83;3.73;;;8.20;33.20;;;;;;6264494;28;20280;-56
2021/12/01 15:30:13;;;;;;;3.77;3.57;;;8.20;34.50;;;;;;6260537;28;20230;-57
2021/12/01 15:33:18;;;;;;;3.67;3.57;;;8.20;34.20;;;;;;6262780;28;20222;-54
2021/12/01 15:36:22;;;;;;;3.37;3.17;;;8.20;33.20;;;;;;6263283;28;20302;-55
2021/12/01 15:39:29;;;;;;;3.20;3.20;;;8.20;33.20;;;;;;6255859;28;20731;-56
2021/12/01 15:42:32;;;;;;;3.70;3.60;;;8.30;31.60;;;;;;6273983;28;20468;-56
2021/12/01 15:45:37;;;;;;;4.07;3.97;;;8.30;31.50;;;;;;6258630;28;20838;-57
2021/12/01 15:48:39;;;;;;;2.90;2.90;;;8.30;31.20;;;;;;6263010;28;20268;-56
2021/12/01 15:51:43;;;;;;;2.90;2.90;;;8.40;29.40;;;;;;6270830;28;20610;-57
2021/12/01 15:54:45;;;;;;;3.30;3.20;;;8.30;29.70;;;;;;6263815;28;20240;-56
2021/12/01 15:57:49;;;;;;;3.63;3.43;;;8.50;29.80;;;;;;6268712;28;20246;-57
2021/12/01 16:00:54;;;;;;;4.03;3.83;;;8.40;30.30;;;;;;6261275;28;20233;-57
2021/12/01 16:03:57;;;;;;;3.93;3.83;;;8.40;30.00;;;;;;6261106;28;20230;-57
2021/12/01 16:07:00;;;;;;;4.97;3.97;;;8.40;29.60;;;;;;6265549;28;20457;-56
2021/12/01 16:10:03;;;;;;;3.77;3.57;;;8.40;29.40;;;;;;6265696;28;20234;-55
2021/12/01 16:13:06;;;;;;;4.13;3.77;;;8.40;28.90;;;;;;6263668;28;20233;-55
2021/12/01 16:16:12;;;;;;;3.67;3.57;;;8.50;28.10;;;;;;6260533;28;20691;-56